Time;durP1;ratioP1;P1;durP2;ratioP2;P2;SDS_P1;SDS_P2;PMS_P1;PMS_P2;Temp;Humidity;BMP_temperature;BMP_pressure;BME280_temperature;BME280_humidity;BME280_pressure;Samples;Min_cycle;Max_cycle;Signal;HPM_P1;HPM_P2
2022/03/17 00:01:54;;;;;;;84.25;48.47;;;6.40;99.90;;;;;;4961557;28;20128;-87
2022/03/17 00:04:21;;;;;;;88.15;50.40;;;6.40;99.90;;;;;;4961650;28;20026;-87
2022/03/17 00:06:48;;;;;;;92.50;50.53;;;6.50;99.90;;;;;;4960788;28;20113;-87
2022/03/17 00:09:14;;;;;;;92.35;48.92;;;6.50;99.90;;;;;;4961189;28;20108;-86
2022/03/17 00:11:40;;;;;;;86.32;49.10;;;6.50;99.90;;;;;;4961136;28;20454;-86
2022/03/17 00:14:06;;;;;;;94.53;49.70;;;6.40;99.90;;;;;;4993391;28;20066;-87
2022/03/17 00:16:32;;;;;;;84.82;48.65;;;6.40;99.90;;;;;;4977321;28;20036;-86
2022/03/17 00:18:58;;;;;;;86.55;47.97;;;6.40;99.90;;;;;;4961178;28;20478;-87
2022/03/17 00:21:23;;;;;;;86.85;49.28;;;6.40;99.90;;;;;;4993416;28;20034;-86
2022/03/17 00:23:50;;;;;;;91.07;49.75;;;6.40;99.90;;;;;;4977366;28;20046;-86
2022/03/17 00:26:17;;;;;;;90.80;49.00;;;6.40;99.90;;;;;;4993308;28;20121;-87
2022/03/17 00:28:43;;;;;;;87.78;48.97;;;6.40;99.90;;;;;;4961139;28;20057;-87
2022/03/17 00:31:09;;;;;;;94.10;51.67;;;6.30;99.90;;;;;;4993851;28;20117;-87
2022/03/17 00:33:35;;;;;;;95.85;50.42;;;6.30;99.90;;;;;;4992981;28;20401;-86
2022/03/17 00:36:00;;;;;;;88.85;50.08;;;6.30;99.90;;;;;;4976866;28;20061;-86
2022/03/17 00:38:26;;;;;;;86.88;48.45;;;6.30;99.90;;;;;;4976842;28;20475;-86
2022/03/17 00:40:52;;;;;;;83.88;47.80;;;6.30;99.90;;;;;;4993325;28;20069;-86
2022/03/17 00:43:17;;;;;;;88.82;49.92;;;6.30;99.90;;;;;;4960759;28;20084;-86
2022/03/17 00:45:45;;;;;;;87.10;49.03;;;6.20;99.90;;;;;;4960990;28;20367;-86
2022/03/17 00:48:11;;;;;;;86.95;48.38;;;6.20;99.90;;;;;;4994240;28;20035;-86
2022/03/17 00:50:37;;;;;;;87.55;47.63;;;6.20;99.90;;;;;;4960593;28;20034;-86
2022/03/17 00:53:04;;;;;;;86.30;49.22;;;6.30;99.90;;;;;;4992534;28;20541;-87
2022/03/17 00:55:29;;;;;;;88.60;48.38;;;6.30;99.90;;;;;;4976530;28;20034;-87
2022/03/17 00:57:56;;;;;;;88.20;47.33;;;6.30;99.90;;;;;;4960318;28;20033;-87
2022/03/17 01:00:21;;;;;;;84.30;47.90;;;6.30;99.90;;;;;;4960269;28;20173;-86
2022/03/17 01:02:50;;;;;;;81.97;46.50;;;6.30;99.90;;;;;;4976609;28;20054;-86
2022/03/17 01:05:16;;;;;;;82.78;46.03;;;6.40;99.90;;;;;;4976409;28;20031;-87
2022/03/17 01:07:42;;;;;;;81.85;46.45;;;6.40;99.90;;;;;;4976164;28;20060;-86
2022/03/17 01:10:11;;;;;;;81.78;46.15;;;6.40;99.90;;;;;;4959930;28;20038;-86
2022/03/17 01:12:37;;;;;;;82.32;45.42;;;6.40;99.90;;;;;;4960395;28;20038;-87
2022/03/17 01:15:04;;;;;;;83.72;46.03;;;6.30;99.90;;;;;;4976709;28;20052;-87
2022/03/17 01:17:30;;;;;;;78.72;45.60;;;6.30;99.90;;;;;;4960724;28;20027;-87
2022/03/17 01:19:56;;;;;;;79.75;46.08;;;6.30;99.90;;;;;;4964378;28;20359;-87
2022/03/17 01:22:23;;;;;;;84.13;46.95;;;6.30;99.90;;;;;;4964516;28;20077;-87
2022/03/17 01:24:52;;;;;;;79.20;44.42;;;6.20;99.90;;;;;;4964508;28;20031;-87
2022/03/17 01:27:20;;;;;;;82.38;44.80;;;6.20;99.90;;;;;;4980540;28;20077;-87
2022/03/17 01:29:50;;;;;;;84.53;45.30;;;6.20;99.90;;;;;;4964026;28;20030;-86
2022/03/17 01:32:16;;;;;;;80.95;45.20;;;6.10;99.90;;;;;;4964278;28;20030;-87
2022/03/17 01:34:43;;;;;;;76.72;44.35;;;6.10;99.90;;;;;;4964163;28;20022;-87
2022/03/17 01:37:08;;;;;;;83.88;45.00;;;6.10;99.90;;;;;;4963851;28;20042;-87
2022/03/17 01:39:36;;;;;;;72.72;43.17;;;6.10;99.90;;;;;;4996183;28;20026;-87
2022/03/17 01:42:04;;;;;;;79.03;42.42;;;6.10;99.90;;;;;;4980062;28;20030;-86
2022/03/17 01:44:30;;;;;;;74.85;42.90;;;6.20;99.90;;;;;;4963652;28;20092;-86
2022/03/17 01:49:41;;;;;;;76.55;43.03;;;6.20;99.90;;;;;;4997283;28;20035;-86
2022/03/17 01:52:07;;;;;;;79.68;44.33;;;6.10;99.90;;;;;;4963858;28;20030;-87
2022/03/17 01:54:37;;;;;;;86.38;45.03;;;6.10;99.90;;;;;;4997257;28;20026;-86
2022/03/17 01:57:05;;;;;;;76.97;44.00;;;6.10;99.90;;;;;;4963544;28;20035;-86
2022/03/17 01:59:32;;;;;;;75.75;42.42;;;6.10;99.90;;;;;;4997031;28;20470;-86
2022/03/17 02:01:58;;;;;;;74.88;43.75;;;6.10;99.90;;;;;;4963592;28;20470;-86
2022/03/17 02:04:25;;;;;;;76.55;41.72;;;6.10;99.90;;;;;;4995991;28;20026;-87
2022/03/17 02:06:51;;;;;;;78.10;43.60;;;6.10;99.90;;;;;;4963509;28;20735;-86
2022/03/17 02:09:18;;;;;;;74.85;41.67;;;6.20;99.90;;;;;;4963125;28;20034;-87
2022/03/17 02:14:34;;;;;;;78.00;43.88;;;6.20;99.90;;;;;;4978906;28;20389;-86
2022/03/17 02:17:00;;;;;;;76.60;42.93;;;6.20;99.90;;;;;;4963100;28;20450;-86
2022/03/17 02:19:26;;;;;;;80.43;43.08;;;6.20;99.90;;;;;;4979081;28;20105;-86
2022/03/17 02:21:52;;;;;;;79.07;42.78;;;6.20;99.90;;;;;;4963181;28;20450;-86
2022/03/17 02:27:03;;;;;;;75.70;42.80;;;6.20;99.90;;;;;;4978776;28;20473;-86
2022/03/17 02:29:30;;;;;;;78.88;41.83;;;6.20;99.90;;;;;;4962537;28;20043;-86
2022/03/17 02:31:57;;;;;;;75.15;41.63;;;6.20;99.90;;;;;;4963069;28;20034;-87
2022/03/17 02:34:23;;;;;;;76.95;41.40;;;6.20;99.90;;;;;;4962938;28;20425;-86
2022/03/17 02:36:51;;;;;;;80.32;43.65;;;6.10;99.90;;;;;;4962556;28;20093;-86
2022/03/17 02:39:19;;;;;;;75.97;43.13;;;6.10;99.90;;;;;;4962883;28;20433;-87
2022/03/17 02:41:45;;;;;;;75.55;42.70;;;6.10;99.90;;;;;;4978952;28;20029;-86
2022/03/17 02:44:12;;;;;;;78.93;41.80;;;6.10;99.90;;;;;;4979011;28;20509;-86
2022/03/17 02:46:37;;;;;;;80.25;44.22;;;6.10;99.90;;;;;;4962820;28;20034;-87
2022/03/17 02:49:05;;;;;;;80.25;43.25;;;6.10;99.90;;;;;;4962785;28;20100;-86
2022/03/17 02:51:31;;;;;;;78.85;41.40;;;6.10;99.90;;;;;;4995054;28;20133;-87
2022/03/17 02:53:57;;;;;;;81.15;42.55;;;6.00;99.90;;;;;;4962509;28;20034;-86
2022/03/17 02:56:23;;;;;;;72.88;40.78;;;6.00;99.90;;;;;;4962418;28;20461;-87
2022/03/17 02:58:49;;;;;;;78.15;41.95;;;6.10;99.90;;;;;;4994921;28;20030;-87
2022/03/17 03:01:14;;;;;;;73.90;40.65;;;6.00;99.90;;;;;;4962317;28;20052;-86
2022/03/17 03:03:40;;;;;;;72.45;40.58;;;6.00;99.90;;;;;;4978609;28;20033;-87
2022/03/17 03:06:06;;;;;;;75.38;41.28;;;6.00;99.90;;;;;;4978143;28;20109;-87
2022/03/17 03:08:34;;;;;;;73.00;41.28;;;6.00;99.90;;;;;;4962196;28;20065;-87
2022/03/17 03:11:00;;;;;;;76.13;42.42;;;6.00;99.90;;;;;;4962087;28;20497;-86
2022/03/17 03:13:26;;;;;;;70.15;38.95;;;6.00;99.90;;;;;;4962372;28;20082;-87
2022/03/17 03:15:51;;;;;;;74.50;41.72;;;6.00;99.90;;;;;;4962223;28;20544;-86
2022/03/17 03:18:18;;;;;;;76.63;39.05;;;6.10;99.90;;;;;;4961870;28;20548;-86
2022/03/17 03:20:44;;;;;;;73.38;39.92;;;6.00;99.90;;;;;;4978063;28;20085;-86
2022/03/17 03:23:11;;;;;;;71.78;39.97;;;6.00;99.90;;;;;;4961833;28;20030;-86
2022/03/17 03:25:37;;;;;;;75.78;40.35;;;6.00;99.90;;;;;;4961854;28;20552;-87
2022/03/17 03:28:07;;;;;;;73.68;39.10;;;6.00;99.90;;;;;;4962033;28;20027;-87
2022/03/17 03:30:33;;;;;;;70.50;38.08;;;6.00;99.90;;;;;;4995554;28;20027;-86
2022/03/17 03:32:59;;;;;;;72.80;39.78;;;6.00;99.90;;;;;;4961926;28;20117;-86
2022/03/17 03:38:09;;;;;;;75.07;39.10;;;6.00;99.90;;;;;;4995225;28;20045;-86
2022/03/17 03:40:35;;;;;;;73.63;39.40;;;6.00;99.90;;;;;;4993677;28;20793;-87
2022/03/17 03:43:00;;;;;;;69.53;38.78;;;6.00;99.90;;;;;;4976976;28;20034;-87
2022/03/17 03:45:26;;;;;;;70.57;39.65;;;6.00;99.90;;;;;;4961209;28;20133;-87
2022/03/17 03:47:52;;;;;;;74.07;37.75;;;6.00;99.90;;;;;;4977586;28;20113;-87
2022/03/17 03:50:18;;;;;;;68.47;38.05;;;6.00;99.90;;;;;;4961513;28;20081;-87
2022/03/17 03:52:44;;;;;;;70.28;38.15;;;6.00;99.90;;;;;;4993726;28;20394;-87
2022/03/17 03:55:10;;;;;;;66.85;37.47;;;6.00;99.90;;;;;;4977293;28;20061;-86
2022/03/17 03:57:36;;;;;;;64.78;37.35;;;6.00;99.90;;;;;;4993660;28;20139;-87
2022/03/17 04:00:15;;;;;;;74.53;40.20;;;5.90;99.90;;;;;;4977388;28;20022;-87
2022/03/17 04:02:41;;;;;;;68.75;37.53;;;5.90;99.90;;;;;;4961326;28;20072;-86
2022/03/17 04:05:07;;;;;;;73.35;39.42;;;5.90;99.90;;;;;;4993711;28;20081;-86
2022/03/17 04:07:33;;;;;;;70.60;39.10;;;5.90;99.90;;;;;;4993294;28;20495;-87
2022/03/17 04:09:59;;;;;;;70.47;39.35;;;5.90;99.90;;;;;;4993423;28;20084;-87
2022/03/17 04:12:24;;;;;;;65.05;38.00;;;5.90;99.90;;;;;;4977203;28;20030;-86
2022/03/17 04:14:50;;;;;;;66.93;38.50;;;5.90;99.90;;;;;;4960974;28;20478;-87
2022/03/17 04:17:16;;;;;;;70.47;38.53;;;5.80;99.90;;;;;;4993173;28;20429;-87
2022/03/17 04:19:41;;;;;;;65.38;37.35;;;5.90;99.90;;;;;;4993266;28;20041;-87
2022/03/17 04:22:07;;;;;;;70.90;39.83;;;5.90;99.90;;;;;;4960868;28;20674;-86
2022/03/17 04:24:33;;;;;;;66.78;38.28;;;5.90;99.90;;;;;;4992822;28;20548;-86
2022/03/17 04:26:59;;;;;;;67.00;37.72;;;5.90;99.90;;;;;;4961012;28;20034;-86
2022/03/17 04:29:25;;;;;;;74.25;40.55;;;5.90;99.90;;;;;;4960874;28;20038;-87
2022/03/17 04:31:50;;;;;;;71.57;39.72;;;5.80;99.90;;;;;;4993375;28;20031;-86
2022/03/17 04:34:16;;;;;;;68.53;37.83;;;5.80;99.90;;;;;;4977058;28;20073;-86
2022/03/17 04:36:42;;;;;;;72.68;40.70;;;5.80;99.90;;;;;;4993256;28;20595;-87
2022/03/17 04:39:10;;;;;;;65.75;37.20;;;5.80;99.90;;;;;;4993148;28;20418;-86
2022/03/17 04:41:36;;;;;;;75.72;40.85;;;5.80;99.90;;;;;;4994320;28;20081;-86
2022/03/17 04:44:02;;;;;;;73.75;38.22;;;5.80;99.90;;;;;;4976889;28;20493;-86
2022/03/17 04:46:36;;;;;;;69.85;37.90;;;5.90;99.90;;;;;;4992789;28;20133;-86
2022/03/17 04:49:02;;;;;;;64.63;35.63;;;5.80;99.90;;;;;;4993180;28;20062;-87
2022/03/17 04:51:28;;;;;;;67.88;38.05;;;5.80;99.90;;;;;;4960832;28;20026;-86
2022/03/17 04:53:55;;;;;;;73.32;38.28;;;5.80;99.90;;;;;;4960244;28;20409;-86
2022/03/17 04:56:20;;;;;;;67.88;37.03;;;5.80;99.90;;;;;;4976615;28;20042;-87
2022/03/17 04:58:46;;;;;;;70.88;38.95;;;5.90;99.90;;;;;;4976607;28;20536;-87
2022/03/17 05:01:14;;;;;;;73.20;38.47;;;5.70;99.90;;;;;;4960574;28;20061;-86
2022/03/17 05:03:40;;;;;;;71.13;38.03;;;5.70;99.90;;;;;;4976320;28;20026;-87
2022/03/17 05:06:06;;;;;;;71.07;38.75;;;5.70;99.90;;;;;;4960240;28;20031;-86
2022/03/17 05:08:35;;;;;;;71.22;39.67;;;5.70;99.90;;;;;;4960238;28;20489;-86
2022/03/17 05:11:03;;;;;;;70.72;40.70;;;5.70;99.90;;;;;;4992224;28;20042;-86
2022/03/17 05:13:28;;;;;;;75.32;40.97;;;5.70;99.90;;;;;;4960342;28;20038;-86
2022/03/17 05:15:54;;;;;;;72.47;40.42;;;5.70;99.90;;;;;;4960195;28;20093;-86
2022/03/17 05:18:20;;;;;;;77.18;40.70;;;5.80;99.90;;;;;;4992545;28;20049;-87
2022/03/17 05:20:47;;;;;;;70.53;39.55;;;5.70;99.90;;;;;;4992655;28;20023;-86
2022/03/17 05:23:15;;;;;;;73.82;40.35;;;5.80;99.90;;;;;;4976185;28;20081;-86
2022/03/17 05:25:42;;;;;;;76.72;41.05;;;5.70;99.90;;;;;;4992252;28;20397;-86
2022/03/17 05:28:09;;;;;;;73.57;39.67;;;5.80;99.90;;;;;;4960025;28;20033;-87
2022/03/17 05:30:39;;;;;;;71.30;39.90;;;5.90;99.90;;;;;;4992356;28;20489;-86
2022/03/17 05:33:06;;;;;;;70.60;39.00;;;5.80;99.90;;;;;;4959951;28;20038;-87
2022/03/17 05:35:32;;;;;;;73.93;40.50;;;5.80;99.90;;;;;;4959680;28;20037;-86
2022/03/17 05:37:58;;;;;;;73.60;39.67;;;5.80;99.90;;;;;;4976494;28;20041;-89
2022/03/17 05:40:25;;;;;;;74.60;39.45;;;5.70;99.90;;;;;;4992949;28;20085;-89
2022/03/17 05:42:54;;;;;;;75.25;41.88;;;5.70;99.90;;;;;;4960349;28;20060;-89
2022/03/17 05:45:20;;;;;;;73.53;39.33;;;5.70;99.90;;;;;;4992871;28;20038;-89
2022/03/17 05:47:48;;;;;;;76.10;41.03;;;5.70;99.90;;;;;;4993342;28;20030;-89
2022/03/17 05:50:17;;;;;;;80.38;41.25;;;5.80;99.90;;;;;;4993161;28;20034;-89
2022/03/17 05:52:44;;;;;;;69.93;39.63;;;5.80;99.90;;;;;;4960851;28;20030;-90
2022/03/17 05:55:11;;;;;;;75.30;39.63;;;5.80;99.90;;;;;;4961228;28;20034;-90
2022/03/17 05:57:41;;;;;;;69.63;39.33;;;5.80;99.90;;;;;;4960745;28;20129;-89
2022/03/17 06:00:09;;;;;;;78.38;42.53;;;5.80;99.90;;;;;;4993257;28;20026;-89
2022/03/17 06:02:36;;;;;;;75.43;41.97;;;5.70;99.90;;;;;;4960608;28;20085;-89
2022/03/17 06:05:03;;;;;;;78.40;42.65;;;5.70;99.90;;;;;;4993957;28;20061;-89
2022/03/17 06:07:43;;;;;;;75.85;41.97;;;5.80;99.90;;;;;;4964088;28;20050;-89
2022/03/17 06:10:11;;;;;;;73.57;40.83;;;5.80;99.90;;;;;;4964140;28;20034;-89
2022/03/17 06:12:38;;;;;;;78.82;41.70;;;5.80;99.90;;;;;;4996396;28;20022;-89
2022/03/17 06:15:04;;;;;;;77.80;42.33;;;5.90;99.90;;;;;;4964275;28;20113;-90
2022/03/17 06:17:41;;;;;;;74.40;40.70;;;5.90;99.90;;;;;;4964236;28;20126;-90
2022/03/17 06:20:09;;;;;;;71.88;40.53;;;5.90;99.90;;;;;;4996523;28;20036;-90
2022/03/17 06:22:40;;;;;;;74.63;40.50;;;5.90;99.90;;;;;;4963945;28;20037;-88
2022/03/17 06:25:07;;;;;;;74.68;42.60;;;5.90;99.90;;;;;;4980219;28;20030;-87
2022/03/17 06:27:34;;;;;;;75.63;41.90;;;6.00;99.90;;;;;;4964237;28;20089;-88
2022/03/17 06:30:05;;;;;;;86.45;43.20;;;6.00;99.90;;;;;;4996378;28;20030;-89
2022/03/17 06:32:31;;;;;;;78.65;42.42;;;6.00;99.90;;;;;;4963783;28;20034;-90
2022/03/17 06:34:57;;;;;;;77.47;42.40;;;6.10;99.90;;;;;;4963820;28;20030;-89
2022/03/17 06:37:23;;;;;;;72.60;40.75;;;6.20;99.90;;;;;;4963688;28;20427;-89
2022/03/17 06:39:49;;;;;;;71.78;40.53;;;6.20;99.90;;;;;;4996013;28;20556;-89
2022/03/17 06:42:14;;;;;;;71.32;41.53;;;6.30;99.90;;;;;;4995793;28;20037;-90
2022/03/17 06:44:40;;;;;;;76.38;41.72;;;6.30;99.90;;;;;;4963910;28;20388;-89
2022/03/17 06:47:06;;;;;;;76.80;41.75;;;6.30;99.90;;;;;;4996241;28;20033;-89
2022/03/17 06:49:32;;;;;;;76.93;43.30;;;6.30;99.90;;;;;;4963581;28;20088;-89
2022/03/17 06:51:58;;;;;;;70.97;40.95;;;6.40;99.90;;;;;;4963325;28;20482;-90
2022/03/17 06:54:24;;;;;;;73.18;41.45;;;6.40;99.90;;;;;;4963905;28;20038;-88
2022/03/17 06:56:50;;;;;;;74.75;41.05;;;6.40;99.90;;;;;;4964150;28;20045;-88
2022/03/17 06:59:16;;;;;;;70.65;40.20;;;6.50;99.90;;;;;;4963971;28;20027;-88
2022/03/17 07:01:41;;;;;;;74.22;40.08;;;6.50;99.90;;;;;;4995803;28;20030;-88
2022/03/17 07:04:07;;;;;;;70.38;39.67;;;6.60;99.90;;;;;;4979854;28;20125;-87
2022/03/17 07:06:33;;;;;;;75.90;41.53;;;6.70;99.90;;;;;;4964140;28;20034;-88
2022/03/17 07:08:58;;;;;;;71.43;40.95;;;6.70;99.90;;;;;;4996098;28;20026;-90
2022/03/17 07:11:24;;;;;;;77.53;40.90;;;6.70;99.90;;;;;;4963938;28;20031;-90
2022/03/17 07:13:50;;;;;;;71.75;41.97;;;6.80;99.90;;;;;;4963753;28;20477;-90
2022/03/17 07:16:15;;;;;;;67.88;39.83;;;6.80;99.90;;;;;;4963949;28;20066;-90
2022/03/17 07:18:41;;;;;;;72.97;41.15;;;6.90;99.90;;;;;;4963297;28;20535;-89
2022/03/17 07:21:07;;;;;;;68.13;39.88;;;7.00;99.90;;;;;;4963944;28;20031;-88
2022/03/17 07:23:33;;;;;;;71.35;40.08;;;7.10;99.90;;;;;;4995818;28;20029;-88
2022/03/17 07:25:58;;;;;;;67.93;39.90;;;7.20;99.90;;;;;;4979831;28;20030;-87
2022/03/17 07:28:25;;;;;;;71.85;40.60;;;7.30;99.90;;;;;;4996963;28;20053;-88
2022/03/17 07:30:51;;;;;;;76.15;39.65;;;7.40;99.90;;;;;;4995373;28;20093;-89
2022/03/17 07:33:17;;;;;;;73.32;40.13;;;7.50;99.90;;;;;;4962882;28;20477;-90
2022/03/17 07:35:43;;;;;;;72.38;40.60;;;7.50;99.90;;;;;;4995333;28;20038;-90
2022/03/17 07:38:09;;;;;;;68.30;39.53;;;7.60;99.90;;;;;;4963584;28;20031;-88
2022/03/17 07:40:35;;;;;;;69.28;39.75;;;7.70;99.90;;;;;;4962843;28;20049;-88
2022/03/17 07:43:02;;;;;;;74.97;41.40;;;7.80;99.90;;;;;;4963551;28;20073;-88
2022/03/17 07:45:31;;;;;;;67.22;38.70;;;7.90;99.90;;;;;;4979922;28;20386;-88
2022/03/17 07:48:15;;;;;;;70.78;40.42;;;7.90;99.90;;;;;;4982014;28;20041;-89
2022/03/17 07:51:04;;;;;;;67.32;39.85;;;8.10;99.90;;;;;;4981675;28;20034;-87
2022/03/17 07:53:29;;;;;;;66.70;39.17;;;8.20;99.90;;;;;;4962947;28;20125;-89
2022/03/17 07:55:56;;;;;;;66.88;39.65;;;8.20;99.90;;;;;;4963139;28;20157;-88
2022/03/17 07:58:24;;;;;;;74.07;41.13;;;8.10;99.90;;;;;;4962679;28;20497;-89
2022/03/17 08:00:55;;;;;;;65.05;37.78;;;8.20;99.90;;;;;;4979192;28;20485;-88
2022/03/17 08:03:21;;;;;;;;;;;8.20;99.90;;;;;;4979383;28;20030;-91
2022/03/17 08:05:49;;;;;;;71.10;38.53;;;8.20;99.90;;;;;;4962812;28;19909;-88
2022/03/17 08:08:18;;;;;;;66.07;38.58;;;8.30;99.90;;;;;;4981309;28;20038;-88
2022/03/17 08:10:44;;;;;;;70.45;40.85;;;8.40;99.90;;;;;;4965004;28;20034;-88
2022/03/17 08:13:11;;;;;;;62.75;37.53;;;8.50;99.90;;;;;;4962538;28;20093;-87
2022/03/17 08:15:38;;;;;;;70.95;39.65;;;8.50;99.90;;;;;;4962582;28;20034;-88
2022/03/17 08:18:04;;;;;;;62.53;38.40;;;8.50;99.90;;;;;;4997217;28;20049;-88
2022/03/17 08:20:31;;;;;;;65.53;39.40;;;8.60;99.90;;;;;;4962391;28;20466;-89
2022/03/17 08:22:57;;;;;;;67.90;39.83;;;8.60;99.90;;;;;;4962541;28;20121;-89
2022/03/17 08:25:23;;;;;;;66.70;38.60;;;8.70;99.90;;;;;;4978888;28;20040;-88
2022/03/17 08:27:52;;;;;;;66.47;39.85;;;8.80;99.90;;;;;;4977628;28;20104;-88
2022/03/17 08:30:18;;;;;;;67.53;38.80;;;8.80;99.90;;;;;;4964632;28;20065;-88
2022/03/17 08:32:43;;;;;;;69.10;38.75;;;8.80;99.90;;;;;;4962417;28;20478;-90
2022/03/17 08:35:14;;;;;;;66.53;39.50;;;8.70;99.90;;;;;;4978301;28;20063;-90
2022/03/17 08:37:41;;;;;;;65.15;39.38;;;8.70;99.90;;;;;;4993833;28;20037;-90
2022/03/17 08:40:08;;;;;;;67.55;38.85;;;8.60;99.90;;;;;;4961527;28;20038;-90
2022/03/17 08:42:33;;;;;;;68.70;39.58;;;8.70;99.90;;;;;;4961998;28;20557;-89
2022/03/17 08:44:59;;;;;;;65.47;38.80;;;8.70;99.90;;;;;;4961483;28;20165;-88
2022/03/17 08:50:16;;;;;;;63.97;39.75;;;9.00;99.90;;;;;;4995575;28;20042;-89
2022/03/17 08:52:42;;;;;;;68.65;37.67;;;9.10;99.90;;;;;;4993930;28;20042;-90
2022/03/17 08:55:10;;;;;;;61.67;36.40;;;9.20;99.90;;;;;;4962002;28;20452;-88
2022/03/17 08:57:36;;;;;;;64.80;38.53;;;9.20;99.90;;;;;;4961903;28;20038;-88
2022/03/17 09:00:06;;;;;;;64.35;38.42;;;9.30;99.90;;;;;;4961865;28;20041;-88
2022/03/17 09:02:32;;;;;;;64.95;39.05;;;9.30;99.90;;;;;;4961975;28;20029;-89
2022/03/17 09:04:58;;;;;;;77.18;41.20;;;9.40;99.90;;;;;;4962230;28;20427;-88
2022/03/17 09:07:23;;;;;;;65.45;38.83;;;9.50;99.90;;;;;;4961865;28;20485;-88
2022/03/17 09:09:49;;;;;;;74.22;42.85;;;9.60;99.90;;;;;;4961873;28;20030;-88
2022/03/17 09:12:16;;;;;;;68.60;39.67;;;9.70;99.90;;;;;;4962047;28;20080;-88
2022/03/17 09:14:41;;;;;;;79.75;45.13;;;9.90;99.90;;;;;;4962098;28;20038;-88
2022/03/17 09:17:07;;;;;;;75.65;41.63;;;9.90;99.90;;;;;;4993880;28;20117;-88
2022/03/17 09:19:33;;;;;;;60.45;37.80;;;10.00;99.90;;;;;;4961910;28;20037;-88
2022/03/17 09:21:59;;;;;;;79.68;45.70;;;10.10;99.90;;;;;;4961829;28;20034;-88
2022/03/17 09:24:26;;;;;;;58.08;37.65;;;10.30;99.90;;;;;;4993894;28;20092;-88
2022/03/17 09:26:52;;;;;;;64.18;40.42;;;10.30;99.90;;;;;;4977471;28;20358;-88
2022/03/17 09:29:17;;;;;;;68.38;37.95;;;10.40;99.90;;;;;;4994206;28;20031;-89
2022/03/17 09:31:44;;;;;;;62.17;37.33;;;10.50;99.90;;;;;;4961770;28;20469;-89
2022/03/17 09:34:09;;;;;;;58.22;35.42;;;10.70;99.90;;;;;;4961710;28;20233;-88
2022/03/17 09:36:35;;;;;;;63.88;36.63;;;10.80;99.90;;;;;;4993813;28;20154;-88
2022/03/17 09:41:45;;;;;;;58.05;33.90;;;11.00;99.90;;;;;;4981491;28;20038;-89
2022/03/17 09:44:14;;;;;;;57.58;34.92;;;11.00;99.90;;;;;;4981752;28;20034;-88
2022/03/17 09:46:42;;;;;;;55.92;34.70;;;11.20;99.90;;;;;;4981342;28;20058;-88
2022/03/17 09:49:09;;;;;;;61.97;34.00;;;11.20;99.90;;;;;;4981660;28;20034;-88
2022/03/17 09:51:35;;;;;;;55.63;35.15;;;11.30;99.90;;;;;;4965355;28;20128;-88
2022/03/17 09:54:02;;;;;;;52.88;34.03;;;11.10;99.90;;;;;;4997684;28;20046;-88
2022/03/17 09:56:29;;;;;;;61.78;35.65;;;11.20;99.90;;;;;;4997624;28;20031;-88
2022/03/17 09:58:56;;;;;;;53.38;34.20;;;11.20;99.90;;;;;;4981524;28;20118;-89
2022/03/17 10:01:23;;;;;;;58.22;36.65;;;11.10;99.90;;;;;;4965146;28;20026;-89
2022/03/17 10:03:49;;;;;;;56.97;33.78;;;11.10;99.90;;;;;;4997204;28;20030;-89
2022/03/17 10:06:17;;;;;;;59.42;35.60;;;11.10;99.90;;;;;;4965061;28;20144;-88
2022/03/17 10:08:48;;;;;;;68.47;38.60;;;11.10;99.90;;;;;;4980909;28;20089;-89
2022/03/17 10:11:16;;;;;;;58.70;35.50;;;11.10;99.90;;;;;;4965100;28;20030;-89
2022/03/17 10:13:47;;;;;;;56.30;34.80;;;11.00;99.90;;;;;;4964938;28;20433;-89
2022/03/17 10:16:18;;;;;;;55.45;36.05;;;11.20;99.90;;;;;;4964818;28;20413;-90
2022/03/17 10:18:45;;;;;;;;;;;11.20;99.90;;;;;;4968382;28;20034;-91
2022/03/17 10:21:17;;;;;;;63.08;36.92;;;11.20;99.90;;;;;;4998525;28;19914;-88
2022/03/17 10:23:42;;;;;;;;;;;11.30;99.90;;;;;;4965628;28;20722;-91
2022/03/17 10:26:08;;;;;;;58.28;35.35;;;11.40;99.90;;;;;;4964546;28;19956;-90
2022/03/17 10:28:52;;;;;;;59.88;36.78;;;11.50;99.90;;;;;;4980789;28;20660;-90
2022/03/17 10:31:18;;;;;;;58.80;35.45;;;11.60;99.90;;;;;;4980976;28;20059;-90
2022/03/17 10:33:44;;;;;;;54.28;34.97;;;11.60;99.90;;;;;;4964550;28;20496;-89
2022/03/17 10:36:21;;;;;;;56.72;35.15;;;11.80;99.90;;;;;;4981523;28;20030;-89
2022/03/17 10:38:49;;;;;;;56.67;35.92;;;12.00;99.90;;;;;;4964952;28;20049;-89
2022/03/17 10:41:15;;;;;;;68.53;38.78;;;11.80;99.90;;;;;;4980188;28;20031;-89
2022/03/17 10:43:43;;;;;;;59.08;34.28;;;11.70;99.90;;;;;;4980625;28;20030;-88
2022/03/17 10:46:21;;;;;;;59.38;34.28;;;11.80;99.90;;;;;;4997191;28;20069;-88
2022/03/17 10:48:58;;;;;;;54.03;35.45;;;11.80;99.90;;;;;;4964236;28;20041;-89
2022/03/17 10:51:54;;;;;;;58.47;34.20;;;11.60;99.90;;;;;;4963661;28;20026;-89
2022/03/17 10:54:20;;;;;;;60.65;35.47;;;11.50;99.90;;;;;;4979290;28;20053;-89
2022/03/17 10:57:04;;;;;;;54.70;34.55;;;11.70;99.90;;;;;;4998009;28;20504;-88
2022/03/17 10:59:43;;;;;;;58.38;35.28;;;11.40;99.90;;;;;;4964054;28;20030;-88
2022/03/17 11:02:12;;;;;;;55.10;35.17;;;11.40;99.90;;;;;;4964211;28;20061;-88
2022/03/17 11:04:41;;;;;;;59.20;33.35;;;11.40;99.90;;;;;;4997380;28;20496;-89
2022/03/17 11:07:13;;;;;;;59.78;35.45;;;11.30;99.90;;;;;;4964020;28;20505;-89
2022/03/17 11:09:40;;;;;;;50.75;32.78;;;11.40;99.90;;;;;;4981617;28;20034;-90
2022/03/17 11:12:26;;;;;;;56.58;37.30;;;11.50;99.90;;;;;;4979691;28;20026;-90
2022/03/17 11:14:55;;;;;;;58.25;34.88;;;11.60;99.90;;;;;;4963379;28;20026;-89
2022/03/17 11:17:29;;;;;;;60.58;36.65;;;11.70;99.90;;;;;;4995641;28;20038;-90
2022/03/17 11:20:02;;;;;;;54.85;34.60;;;12.00;99.90;;;;;;4963825;28;20088;-91
2022/03/17 11:22:29;;;;;;;56.20;36.53;;;12.10;99.90;;;;;;4995955;28;20027;-88
2022/03/17 11:25:13;;;;;;;62.35;38.75;;;12.20;99.90;;;;;;4963625;28;20128;-89
2022/03/17 11:27:47;;;;;;;82.70;51.63;;;12.10;99.90;;;;;;4963650;28;20433;-88
2022/03/17 11:30:16;;;;;;;67.10;39.17;;;12.20;99.90;;;;;;4995858;28;20045;-90
2022/03/17 11:32:58;;;;;;;57.83;35.33;;;12.30;99.90;;;;;;4963132;28;20038;-88
2022/03/17 11:35:29;;;;;;;49.60;32.10;;;12.20;99.90;;;;;;4963507;28;20042;-91
2022/03/17 11:38:16;;;;;;;56.20;34.47;;;12.00;99.90;;;;;;4963285;28;20031;-89
2022/03/17 11:41:02;;;;;;;53.17;35.85;;;12.10;99.90;;;;;;4995427;28;20030;-89
2022/03/17 11:43:38;;;;;;;55.30;32.20;;;12.30;99.90;;;;;;4995261;28;20040;-88
2022/03/17 11:46:17;;;;;;;54.03;33.35;;;12.60;99.90;;;;;;4979266;28;20034;-88
2022/03/17 11:48:45;;;;;;;52.65;33.95;;;12.70;99.90;;;;;;4995181;28;20034;-88
2022/03/17 11:51:13;;;;;;;53.67;33.08;;;12.70;99.90;;;;;;4963797;28;20054;-90
2022/03/17 11:54:02;;;;;;;54.13;33.45;;;12.60;99.90;;;;;;4963005;28;20064;-90
2022/03/17 11:56:48;;;;;;;49.00;31.88;;;12.40;99.90;;;;;;4978901;28;20428;-90
2022/03/17 11:59:19;;;;;;;54.00;31.35;;;12.40;99.90;;;;;;4979253;28;20034;-89
2022/03/17 12:01:47;;;;;;;49.78;32.65;;;12.30;99.90;;;;;;4962473;28;20037;-88
2022/03/17 12:04:32;;;;;;;50.67;32.25;;;12.20;99.90;;;;;;4995281;28;20019;-88
2022/03/17 12:07:09;;;;;;;53.45;32.97;;;11.80;99.90;;;;;;4962414;28;20042;-88
2022/03/17 12:09:35;;;;;;;60.00;34.58;;;11.50;99.90;;;;;;4978291;28;20043;-90
2022/03/17 12:12:03;;;;;;;62.88;33.88;;;11.50;99.90;;;;;;4978188;28;20026;-88
2022/03/17 12:14:34;;;;;;;65.78;34.58;;;11.50;99.90;;;;;;4962654;28;20500;-89
2022/03/17 12:17:08;;;;;;;56.85;34.08;;;11.50;99.90;;;;;;4962768;28;20033;-89
2022/03/17 12:19:52;;;;;;;63.97;35.72;;;11.80;99.90;;;;;;4962703;28;20030;-89
2022/03/17 12:22:33;;;;;;;65.13;36.20;;;11.80;99.90;;;;;;4962302;28;20466;-88
2022/03/17 12:25:03;;;;;;;67.63;36.53;;;11.40;99.90;;;;;;4962534;28;20114;-89
2022/03/17 12:27:32;;;;;;;62.53;36.00;;;11.20;99.90;;;;;;4994287;28;20038;-88
2022/03/17 12:30:08;;;;;;;65.68;34.25;;;11.20;99.90;;;;;;4994634;28;20644;-88
2022/03/17 12:32:37;;;;;;;76.07;37.65;;;10.90;99.90;;;;;;4962264;28;20479;-91
2022/03/17 12:35:04;;;;;;;69.45;37.50;;;10.60;99.90;;;;;;4961695;28;20474;-88
2022/03/17 12:37:32;;;;;;;74.68;37.22;;;10.30;99.90;;;;;;4961664;28;20042;-88
2022/03/17 12:40:01;;;;;;;65.30;35.05;;;10.10;99.90;;;;;;4961869;28;20121;-88
2022/03/17 12:42:32;;;;;;;62.03;35.83;;;10.10;99.90;;;;;;4994137;28;20165;-87
2022/03/17 12:44:59;;;;;;;65.67;35.90;;;10.20;99.90;;;;;;4962136;28;20037;-90
2022/03/17 12:47:27;;;;;;;64.70;37.20;;;10.10;99.90;;;;;;4994075;28;20059;-90
2022/03/17 12:49:53;;;;;;;69.10;36.78;;;9.90;99.90;;;;;;4961966;28;20045;-90
2022/03/17 12:52:22;;;;;;;66.47;37.35;;;9.90;99.90;;;;;;4977493;28;20397;-90
2022/03/17 12:54:52;;;;;;;65.22;36.88;;;10.00;99.90;;;;;;4993675;28;20485;-89
2022/03/17 12:57:18;;;;;;;73.47;37.20;;;9.90;99.90;;;;;;4961129;28;20038;-87